createdAt,value
2023-03-17T05:21:19.201Z,101176.66
2023-03-17T05:24:22.148Z,101176.66
2023-03-17T05:27:24.770Z,101180.59
2023-03-17T05:30:31.571Z,101197.81
2023-03-17T05:33:34.906Z,101187.88
2023-03-17T05:36:37.650Z,101183.81
2023-03-17T05:39:40.476Z,101183.75
2023-03-17T05:42:43.095Z,101189.50
2023-03-17T05:45:47.417Z,101191.31
2023-03-17T05:48:50.027Z,101186.88
2023-03-17T05:51:52.594Z,101197.41
2023-03-17T05:54:55.360Z,101212.28
2023-03-17T05:57:58.112Z,101211.16
2023-03-17T06:01:01.239Z,101207.63
2023-03-17T06:04:05.109Z,101190.94
2023-03-17T06:07:09.592Z,101185.72
2023-03-17T06:10:12.419Z,101172.91
2023-03-17T06:13:15.544Z,101180.78
2023-03-17T06:16:18.400Z,101175.09
2023-03-17T06:19:21.157Z,101185.56
2023-03-17T06:22:23.660Z,101189.34
2023-03-17T06:25:27.368Z,101185.28
2023-03-17T06:28:29.956Z,101184.47
2023-03-17T06:31:32.495Z,101177.22
2023-03-17T06:34:34.979Z,101182.97
2023-03-17T06:37:37.544Z,101189.06
2023-03-17T06:40:40.076Z,101192.81
2023-03-17T06:43:42.636Z,101192.28
2023-03-17T06:46:45.284Z,101197.06
2023-03-17T06:49:48.066Z,101198.31
2023-03-17T06:52:51.693Z,101197.22
2023-03-17T06:55:54.200Z,101197.69
2023-03-17T06:58:56.863Z,101200.34
2023-03-17T07:02:00.530Z,101197.19
2023-03-17T07:05:04.661Z,101196.81
2023-03-17T07:08:07.475Z,101192.63
2023-03-17T07:11:10.045Z,101199.75
2023-03-17T07:14:13.956Z,101202.72
2023-03-17T07:17:16.564Z,101206.81
2023-03-17T07:20:19.221Z,101208.56
2023-03-17T07:23:23.017Z,101219.09
2023-03-17T07:26:25.707Z,101221.91
2023-03-17T07:29:29.375Z,101225.53
2023-03-17T07:32:33.545Z,101231.72
2023-03-17T07:35:36.345Z,101235.22
2023-03-17T07:38:38.975Z,101230.88
2023-03-17T07:41:41.490Z,101243.22
2023-03-17T07:44:44.278Z,101234.56
2023-03-17T07:47:46.970Z,101230.25
2023-03-17T07:50:49.510Z,101237.37
2023-03-17T07:53:52.079Z,101232.16
2023-03-17T07:56:54.994Z,101234.94
2023-03-17T07:59:57.918Z,101236.72
2023-03-17T08:03:09.841Z,101237.72
2023-03-17T08:06:13.384Z,101240.34
2023-03-17T08:09:16.018Z,101233.28
2023-03-17T08:12:18.854Z,101231.81
2023-03-17T08:15:22.164Z,101224.06
2023-03-17T08:18:24.758Z,101214.47
2023-03-17T08:21:27.533Z,101224.13
2023-03-17T08:24:30.312Z,101214.84
2023-03-17T08:27:34.004Z,101220.94
2023-03-17T08:30:38.805Z,101219.25
2023-03-17T08:33:42.596Z,101212.44
2023-03-17T08:36:45.257Z,101219.53
2023-03-17T08:39:47.980Z,101213.59
2023-03-17T08:42:50.847Z,101211.78
2023-03-17T08:45:54.087Z,101215.78
2023-03-17T08:48:57.150Z,101223.69
2023-03-17T08:51:59.786Z,101224.00
2023-03-17T08:55:02.691Z,101220.53
2023-03-17T08:58:05.559Z,101217.97
2023-03-17T09:01:10.183Z,101223.22
2023-03-17T09:04:12.880Z,101217.84
2023-03-17T09:07:15.380Z,101220.34
2023-03-17T09:10:22.725Z,101224.81
2023-03-17T09:13:25.807Z,101215.25
2023-03-17T09:16:28.913Z,101216.00
2023-03-17T09:19:32.536Z,101211.66
2023-03-17T09:22:35.078Z,101210.03
2023-03-17T09:25:38.533Z,101213.59
2023-03-17T09:28:41.061Z,101223.28
2023-03-17T09:31:43.942Z,101210.22
2023-03-17T09:34:46.570Z,101214.53
2023-03-17T09:37:49.193Z,101212.03
2023-03-17T09:41:05.328Z,101210.31
2023-03-17T09:44:19.566Z,101205.09
2023-03-17T09:47:31.203Z,101206.87
2023-03-17T09:50:42.955Z,101206.87
2023-03-17T09:54:00.600Z,101196.41
2023-03-17T09:57:27.511Z,101198.19
2023-03-17T10:00:31.414Z,101193.84
2023-03-17T10:03:34.292Z,101194.69
2023-03-17T10:06:43.867Z,101202.56
2023-03-17T10:09:53.732Z,101189.53
2023-03-17T10:13:18.029Z,101183.44
2023-03-17T10:17:07.123Z,101179.09
2023-03-17T10:20:16.066Z,101178.25
2023-03-17T10:23:25.404Z,101177.38
2023-03-17T10:26:42.604Z,101173.91
2023-03-17T10:29:54.206Z,101165.22
2023-03-17T10:32:57.596Z,101166.97
2023-03-17T10:36:09.248Z,101179.09
2023-03-17T10:39:14.615Z,101159.09
2023-03-17T10:42:17.356Z,101160.00
2023-03-17T10:45:29.635Z,101156.50
2023-03-17T10:48:36.545Z,101147.84
2023-03-17T10:51:40.689Z,101148.72
2023-03-17T10:54:47.280Z,101146.13
2023-03-17T10:57:52.365Z,101140.00
2023-03-17T11:01:07.882Z,101132.22
2023-03-17T11:04:21.875Z,101130.47
2023-03-17T11:07:34.745Z,101125.25
2023-03-17T11:10:39.529Z,101117.38
2023-03-17T11:13:42.372Z,101106.12
2023-03-17T11:16:59.371Z,101113.94
2023-03-17T11:20:31.821Z,101102.66
2023-03-17T11:23:47.891Z,101102.66
2023-03-17T11:26:58.828Z,101097.38
2023-03-17T11:30:11.902Z,101095.69
2023-03-17T11:33:35.673Z,101090.44
2023-03-17T11:36:46.387Z,101085.25
2023-03-17T11:40:12.669Z,101077.41
2023-03-17T11:43:15.138Z,101071.31
2023-03-17T11:46:31.151Z,101074.81
2023-03-17T11:49:37.973Z,101068.75
2023-03-17T11:53:05.606Z,101069.53
2023-03-17T11:56:14.067Z,101064.41
2023-03-17T11:59:39.072Z,101059.19
2023-03-17T12:02:58.154Z,101055.66
2023-03-17T12:06:11.014Z,101050.44
2023-03-17T12:10:01.378Z,101044.31
2023-03-17T12:13:24.318Z,101036.31
2023-03-17T12:16:29.771Z,101046.00
2023-03-17T12:19:46.049Z,101042.62
2023-03-17T12:22:56.684Z,101023.53
2023-03-17T12:26:08.899Z,101011.34
2023-03-17T12:29:14.482Z,101003.28
2023-03-17T12:32:24.970Z,100991.16
2023-03-17T12:35:28.209Z,101005.19
2023-03-17T12:38:38.652Z,100998.16
2023-03-17T12:42:02.538Z,101001.69
2023-03-17T12:45:26.495Z,100999.03
2023-03-17T12:48:51.318Z,100989.53
2023-03-17T12:52:24.639Z,100982.63
2023-03-17T12:55:27.515Z,100978.81
2023-03-17T12:58:33.073Z,100977.28
2023-03-17T13:01:39.308Z,100976.47
2023-03-17T13:04:49.123Z,100982.53
2023-03-17T13:07:54.670Z,100967.88
2023-03-17T13:11:21.328Z,100967.78
2023-03-17T13:14:29.637Z,100959.94
2023-03-17T13:17:36.244Z,100956.41
2023-03-17T13:21:02.664Z,100954.56
2023-03-17T13:24:18.717Z,100952.03
2023-03-17T13:27:31.054Z,100945.84
2023-03-17T13:30:36.632Z,100944.97
2023-03-17T13:33:44.810Z,100943.00
2023-03-17T13:37:25.944Z,100938.81
2023-03-17T13:40:52.642Z,100935.16
2023-03-17T13:44:10.584Z,100932.56
2023-03-17T13:47:25.484Z,100931.66
2023-03-17T13:50:31.580Z,100922.69
2023-03-17T13:53:56.600Z,100920.97
2023-03-17T13:57:19.813Z,100929.84
2023-03-17T14:00:24.536Z,100928.06
2023-03-17T14:03:56.756Z,100918.78
2023-03-17T14:07:00.729Z,100920.59
2023-03-17T14:10:05.571Z,100929.94
2023-03-17T14:13:27.985Z,100936.75
2023-03-17T14:16:32.485Z,100927.25
2023-03-17T14:19:35.151Z,100931.63
2023-03-17T14:22:44.840Z,100916.88
2023-03-17T14:25:47.862Z,100922.00
2023-03-17T14:28:50.554Z,100915.28
2023-03-17T14:32:07.155Z,100897.97
2023-03-17T14:35:13.231Z,100899.50
2023-03-17T14:38:20.805Z,100893.06
2023-03-17T14:41:24.554Z,100885.56
2023-03-17T14:44:27.238Z,100877.84
2023-03-17T14:47:29.862Z,100877.91
2023-03-17T14:50:32.539Z,100877.87
2023-03-17T14:53:36.289Z,100876.88
2023-03-17T14:56:43.022Z,100873.34
2023-03-17T14:59:57.485Z,100871.59
2023-03-17T15:03:03.141Z,100854.37
2023-03-17T15:06:23.235Z,100858.75
2023-03-17T15:09:28.618Z,100851.41
2023-03-17T15:12:31.097Z,100843.87
2023-03-17T15:15:37.987Z,100845.38
2023-03-17T15:18:40.700Z,100844.63
2023-03-17T15:21:43.414Z,100836.75
2023-03-17T15:24:46.265Z,100823.72
2023-03-17T15:27:48.996Z,100829.06
2023-03-17T15:30:52.867Z,100822.94
2023-03-17T15:33:55.757Z,100816.75
2023-03-17T15:36:58.388Z,100817.91
2023-03-17T15:40:01.565Z,100823.91
2023-03-17T15:43:04.095Z,100814.41
2023-03-17T15:46:16.409Z,100822.31
2023-03-17T15:49:19.108Z,100826.56
2023-03-17T15:52:25.245Z,100813.56
2023-03-17T15:55:33.080Z,100818.81
2023-03-17T15:58:35.658Z,100814.47
2023-03-17T16:01:38.409Z,100810.97
2023-03-17T16:04:41.141Z,100818.84
2023-03-17T16:07:44.092Z,100812.87
2023-03-17T16:10:47.105Z,100817.28
2023-03-17T16:13:49.656Z,100811.31
2023-03-17T16:16:52.211Z,100808.75
